Evans, WA

1:50 PM PDT on April 18, 2015 (GMT -0700)
ECHO PEAK - W6SQ | | Change Station
CLOSE
Current Station
Personal Weather Station
Location: Colville, WA
Elevation: 1918 ft
Nearby Weather Stations

Elev 1918 ft 48.66 °N, 117.94 °W | Updated 6 seconds ago

Clear
Clear
70.5 °F
Feels Like 72 °F
N
2.4
Wind Variable Wind from North
Gusts 6.9 mph

Today
High -- | Low -- °F
--% Chance of Precip.
Yesterday
High -- | Low -- °F
Precip. -- in
5:55 AM 7:47 PM
New Moon, 0% visible
Pressure 30.24 in
Visibility 10.0 miles
Clouds Clear
Heat Index 72 °F
Dew Point 11 °F
Humidity 10%
Rainfall 0.00 in
Snow Depth Not available.
UV 0.0 out of 12
Pollen 10.80 out of 12
Air Quality Not available.
Flu Activity Regional
METAR KDEW 181953Z AUTO VRB04KT 10SM CLR 18/M05 A3023 RMK AO2 SLP238 T01781050

More Conditions Fewer Conditions

Pressure 30.24 in
Visibility 10.0 miles
Clouds Clear
Heat Index 72 °F
Dew Point 11 °F
Humidity 10%
Rainfall 0.00 in
Snow Depth Not available.
UV 0.0 out of 12
Pollen 10.80 out of 12
Air Quality Not available.
Flu Activity Regional
METAR KDEW 181953Z AUTO VRB04KT 10SM CLR 18/M05 A3023 RMK AO2 SLP238 T01781050

More Conditions Fewer Conditions

10-Day Weather Forecast

Almanac

Astronomy

Apr. 18, 2015 Rise Set
Actual Time
Civil Twilight
Nautical Twilight
Astronomical Twilight
Moon
Length of Visible Light
Length of Day
Tomorrow will be .
, % of the Moon is Illuminated

Today's Extremes

State Highs State Lows

Community

WunderPhotos

Upload Photos

1,814,525 photos uploaded!

WunderBlogs® & News

Nearby

Air Quality

  Air Quality AQ Index Pollutant
Not available.

Snow Depth

Station Depth Elevation

Earthquake Activity

City Distance Mag. Time & Date
Minimum magnitude displayed is 2.5.

Coastal Water Temperatures

Place Temperature

Stations

Nearby Weather Stations

Station Location Temp. Windchill Dew Point Humidity Wind Precip. Elev Updated Type